Time;durP1;ratioP1;P1;durP2;ratioP2;P2;SDS_P1;SDS_P2;PMS_P1;PMS_P2;Temp;Humidity;BMP_temperature;BMP_pressure;BME280_temperature;BME280_humidity;BME280_pressure;Samples;Min_cycle;Max_cycle;Signal;HPM_P1;HPM_P2
2023/06/12 00:02:17;;;;;;;2.63;1.23;;;;;;;20.05;68.32;100384.63;10210731;28;97990;-80
2023/06/12 00:07:22;;;;;;;4.03;1.73;;;;;;;19.78;69.00;100380.53;10210654;28;96697;-80
2023/06/12 00:12:26;;;;;;;2.63;1.50;;;;;;;19.66;69.20;100368.97;10210939;28;96593;-80
2023/06/12 00:17:33;;;;;;;2.97;1.70;;;;;;;19.78;68.65;100367.19;10210965;28;96792;-80
2023/06/12 00:22:40;;;;;;;2.83;1.70;;;;;;;19.63;68.81;100365.69;10211315;28;96699;-80
2023/06/12 00:27:43;;;;;;;3.47;1.50;;;;;;;19.55;69.22;100360.03;10210389;28;97536;-79
2023/06/12 00:32:46;;;;;;;1.95;1.40;;;;;;;19.37;69.80;100361.38;10211036;28;97966;-80
2023/06/12 00:37:51;;;;;;;3.78;1.50;;;;;;;19.17;70.82;100357.50;10205762;28;96811;-79
2023/06/12 00:42:54;;;;;;;2.22;1.38;;;;;;;19.49;69.61;100340.03;10205151;28;97147;-79
2023/06/12 00:47:59;;;;;;;3.22;1.60;;;;;;;19.62;69.18;100342.59;10220578;28;97520;-79
2023/06/12 00:53:04;;;;;;;4.45;2.13;;;;;;;19.72;68.97;100347.13;10250043;28;97703;-79
2023/06/12 00:58:07;;;;;;;3.33;1.60;;;;;;;19.70;69.09;100340.22;10249567;28;97369;-79
2023/06/12 01:03:13;;;;;;;4.15;1.90;;;;;;;19.65;69.31;100337.06;10249454;28;96766;-79
2023/06/12 01:08:27;;;;;;;2.80;1.48;;;;;;;19.36;70.13;100335.66;10218785;22;96800;-79
2023/06/12 01:13:33;;;;;;;2.92;1.58;;;;;;;19.34;70.38;100324.28;10209622;28;96801;-80
2023/06/12 01:18:36;;;;;;;2.60;1.38;;;;;;;19.47;70.05;100330.41;10208333;28;96687;-80
2023/06/12 01:24:08;;;;;;;1.83;1.37;;;;;;;19.35;70.16;100321.47;10209196;28;96809;-79
2023/06/12 01:29:40;;;;;;;2.33;1.50;;;;;;;19.35;70.04;100301.94;10207490;28;96866;-79
2023/06/12 01:34:51;;;;;;;4.07;1.80;;;;;;;19.33;70.02;100304.72;10208056;28;97265;-80
2023/06/12 01:39:58;;;;;;;3.22;1.38;;;;;;;19.32;70.24;100297.66;10226777;28;96617;-79
2023/06/12 01:45:01;;;;;;;1.80;1.50;;;;;;;19.30;70.53;100299.63;10248585;28;96689;-79
2023/06/12 01:50:08;;;;;;;2.75;1.40;;;;;;;19.22;70.91;100299.31;10249033;28;97067;-80
2023/06/12 01:55:13;;;;;;;2.85;1.50;;;;;;;19.21;70.93;100292.31;10242638;28;96965;-80
2023/06/12 02:00:17;;;;;;;;;;;;;;;19.17;71.92;100294.34;10208528;28;96605;-80
2023/06/12 02:05:21;;;;;;;2.70;1.52;;;;;;;19.01;71.36;100274.22;10207516;28;96876;-80
2023/06/12 02:10:25;;;;;;;3.88;1.88;;;;;;;19.01;71.53;100269.75;10207744;28;96940;-80
2023/06/12 02:15:29;;;;;;;2.07;1.50;;;;;;;19.23;71.08;100264.53;10239110;28;97229;-80
2023/06/12 02:20:34;;;;;;;2.30;1.40;;;;;;;19.31;70.90;100255.94;10246700;28;96969;-80
2023/06/12 02:25:37;;;;;;;2.17;1.48;;;;;;;19.36;70.80;100261.78;10247477;28;96753;-80
2023/06/12 02:30:40;;;;;;;3.17;1.50;;;;;;;19.17;71.06;100262.31;10246644;28;97374;-79
2023/06/12 02:35:45;;;;;;;3.63;1.48;;;;;;;18.99;71.78;100257.53;10247111;28;96948;-79
2023/06/12 02:40:48;;;;;;;1.90;1.20;;;;;;;19.02;71.38;100255.47;10246827;28;96773;-79
2023/06/12 02:45:51;;;;;;;1.95;1.42;;;;;;;18.99;71.20;100250.34;10246032;28;96937;-79
2023/06/12 02:50:56;;;;;;;2.42;1.60;;;;;;;18.93;71.21;100242.81;10246850;28;96706;-79
2023/06/12 02:56:00;;;;;;;2.83;1.40;;;;;;;18.78;71.46;100233.25;10254619;28;96636;-79
2023/06/12 03:01:04;;;;;;;4.40;1.70;;;;;;;18.67;71.84;100238.53;10254191;28;97683;-79
2023/06/12 03:06:09;;;;;;;2.05;1.58;;;;;;;18.76;71.26;100235.22;10252144;28;97746;-80
2023/06/12 03:11:12;;;;;;;;;;;;;;;18.68;71.26;100240.22;10236122;28;96759;-79
2023/06/12 03:16:15;;;;;;;2.78;1.42;;;;;;;18.43;71.42;100234.97;10212842;28;96700;-79
2023/06/12 03:21:20;;;;;;;3.38;1.58;;;;;;;18.29;72.06;100236.91;10227243;28;97384;-79
2023/06/12 03:26:23;;;;;;;2.10;1.50;;;;;;;18.44;71.72;100234.00;10252983;28;98154;-79
2023/06/12 03:31:26;;;;;;;6.75;1.67;;;;;;;18.47;71.69;100233.78;10252700;28;96585;-79
2023/06/12 03:36:33;;;;;;;2.22;1.35;;;;;;;18.51;71.46;100232.63;10251730;28;96712;-79
2023/06/12 03:41:38;;;;;;;2.05;1.13;;;;;;;18.47;71.52;100233.78;10202265;28;97079;-80
2023/06/12 03:46:42;;;;;;;2.08;1.33;;;;;;;18.53;71.31;100245.81;10212398;28;96686;-80
2023/06/12 03:51:46;;;;;;;2.45;1.50;;;;;;;18.39;71.89;100251.25;10211706;28;97195;-80
2023/06/12 03:56:50;;;;;;;2.22;1.40;;;;;;;18.09;72.91;100247.16;10237641;28;96672;-80
2023/06/12 04:01:53;;;;;;;3.03;1.60;;;;;;;17.78;73.69;100225.44;10250399;28;97220;-80
2023/06/12 04:06:59;;;;;;;2.03;1.48;;;;;;;17.75;73.99;100226.50;10250659;28;96671;-79
2023/06/12 04:12:03;;;;;;;3.88;1.63;;;;;;;17.68;74.62;100227.03;10228836;28;97920;-80
2023/06/12 04:17:07;;;;;;;2.78;1.63;;;;;;;17.58;75.08;100223.31;10251058;28;96681;-80
2023/06/12 04:22:12;;;;;;;2.33;1.60;;;;;;;17.55;74.86;100223.53;10251046;28;96952;-80
2023/06/12 04:27:16;;;;;;;2.28;1.55;;;;;;;17.62;74.60;100222.16;10250611;28;96718;-80
2023/06/12 04:32:20;;;;;;;2.17;1.50;;;;;;;17.61;74.64;100202.66;10250194;28;96809;-79
2023/06/12 04:37:25;;;;;;;2.88;1.48;;;;;;;17.56;74.94;100195.94;10250810;28;97733;-79
2023/06/12 04:42:31;;;;;;;1.95;1.35;;;;;;;17.48;75.06;100171.69;10250166;28;96925;-79
2023/06/12 04:47:36;;;;;;;3.25;1.38;;;;;;;17.49;75.18;100158.28;10249315;28;97012;-79
2023/06/12 04:52:41;;;;;;;2.47;1.77;;;;;;;17.49;74.73;100176.91;10248962;28;96835;-79
2023/06/12 04:57:45;;;;;;;2.95;1.50;;;;;;;17.51;74.86;100169.66;10249720;28;96847;-79
2023/06/12 05:02:49;;;;;;;2.22;1.60;;;;;;;17.62;74.17;100166.28;10249215;28;97559;-80
2023/06/12 05:07:54;;;;;;;;;;;;;;;17.64;74.60;100169.69;10249306;28;96873;-79
2023/06/12 05:12:58;;;;;;;1.92;1.33;;;;;;;17.70;73.98;100175.41;10187865;28;97166;-79
2023/06/12 05:18:01;;;;;;;3.08;1.65;;;;;;;17.67;73.66;100183.63;10168250;28;96597;-79
2023/06/12 05:23:07;;;;;;;2.90;1.27;;;;;;;17.79;73.61;100184.56;10206609;28;97004;-80
2023/06/12 05:28:11;;;;;;;2.15;1.17;;;;;;;17.87;73.46;100188.38;10209490;28;96622;-80
2023/06/12 05:33:15;;;;;;;4.88;1.80;;;;;;;17.87;73.82;100192.84;10208421;28;97165;-79
2023/06/12 05:38:19;;;;;;;2.88;1.50;;;;;;;17.98;73.84;100190.28;10209251;28;96592;-79
2023/06/12 05:43:22;;;;;;;;;;;;;;;18.04;74.95;100189.84;10207992;28;97752;-80
2023/06/12 05:48:25;;;;;;;2.25;1.52;;;;;;;18.14;73.68;100193.59;10208348;28;96695;-79
2023/06/12 05:53:31;;;;;;;6.40;1.80;;;;;;;18.26;73.48;100179.38;10215852;28;96671;-80
2023/06/12 05:58:38;;;;;;;5.10;1.58;;;;;;;18.21;73.74;100178.88;10248445;28;96633;-79
2023/06/12 06:03:42;;;;;;;2.50;1.40;;;;;;;18.18;73.69;100171.94;10248173;28;96749;-79
2023/06/12 06:08:47;;;;;;;3.95;1.65;;;;;;;18.33;73.33;100169.13;10247634;28;96771;-79
2023/06/12 06:13:50;;;;;;;;;;;;;;;18.44;73.11;100171.84;10208424;28;96617;-79
2023/06/12 06:18:53;;;;;;;2.85;1.48;;;;;;;18.70;72.36;100174.34;10208345;28;96642;-79
2023/06/12 06:23:58;;;;;;;3.53;1.60;;;;;;;18.91;71.67;100174.56;10206939;28;96752;-79
2023/06/12 06:29:01;;;;;;;2.30;1.48;;;;;;;19.18;70.96;100170.66;10213452;28;96596;-79
2023/06/12 06:34:16;;;;;;;1.90;1.20;;;;;;;19.35;70.22;100157.84;10212940;28;97601;-79
2023/06/12 06:39:21;;;;;;;2.08;1.33;;;;;;;19.20;70.29;100155.38;10212779;28;98637;-79
2023/06/12 06:44:24;;;;;;;1.80;1.23;;;;;;;19.29;70.15;100162.69;10220567;28;97904;-79
2023/06/12 06:49:29;;;;;;;3.25;1.70;;;;;;;19.28;70.30;100162.81;10254580;28;97666;-80
2023/06/12 06:54:33;;;;;;;2.47;1.30;;;;;;;19.53;69.73;100159.13;10253535;28;96560;-80
2023/06/12 06:59:37;;;;;;;2.90;1.30;;;;;;;19.58;69.41;100155.09;10253897;28;96680;-79
2023/06/12 07:04:41;;;;;;;2.63;1.50;;;;;;;19.44;68.71;100152.66;10252072;28;96685;-79
2023/06/12 07:09:45;;;;;;;3.30;1.63;;;;;;;19.60;68.75;100157.66;10249413;28;97729;-80
2023/06/12 07:14:48;;;;;;;3.55;1.45;;;;;;;19.75;68.26;100157.31;10212926;28;96686;-80
2023/06/12 07:19:52;;;;;;;2.03;1.45;;;;;;;19.93;67.65;100147.84;10213087;28;96773;-80
2023/06/12 07:24:57;;;;;;;1.98;1.25;;;;;;;20.10;67.49;100142.00;10211536;28;96676;-80
2023/06/12 07:30:00;;;;;;;3.58;1.67;;;;;;;20.32;66.81;100138.50;10212128;28;96771;-80
2023/06/12 07:35:05;;;;;;;2.63;1.30;;;;;;;20.53;66.37;100143.91;10212615;28;96902;-80
2023/06/12 07:40:11;;;;;;;2.70;1.85;;;;;;;20.56;65.88;100147.19;10211481;28;97055;-79
2023/06/12 07:45:15;;;;;;;1.90;1.30;;;;;;;20.64;65.59;100142.03;10211913;28;96697;-79
2023/06/12 07:50:20;;;;;;;3.23;1.60;;;;;;;20.57;65.40;100140.00;10211804;28;97586;-80
2023/06/12 07:55:26;;;;;;;2.35;1.45;;;;;;;20.73;65.14;100132.41;10211879;28;97706;-80
2023/06/12 08:00:32;;;;;;;4.43;1.80;;;;;;;20.85;64.91;100134.91;10212091;28;96610;-80
2023/06/12 08:05:36;;;;;;;2.13;1.33;;;;;;;21.10;nan;100142.56;10210656;28;96720;-80
2023/06/12 08:10:41;;;;;;;2.77;1.60;;;;;;;20.94;63.95;100149.34;10210543;28;118298;-80
2023/06/12 08:16:02;;;;;;;2.88;1.27;;;;;;;21.12;63.82;100140.59;10203904;28;96669;-80
2023/06/12 08:21:24;;;;;;;2.17;1.20;;;;;;;21.57;63.31;100143.03;10206326;28;97571;-80
2023/06/12 08:26:29;;;;;;;2.03;1.48;;;;;;;21.56;62.99;100150.22;10217521;28;97824;-80
2023/06/12 08:31:49;;;;;;;2.28;1.30;;;;;;;21.70;62.43;100151.69;10244871;28;96565;-80
2023/06/12 08:36:54;;;;;;;1.90;1.38;;;;;;;22.06;61.78;100152.03;10250273;28;96646;-80
2023/06/12 08:42:18;;;;;;;1.88;1.30;;;;;;;22.21;61.35;100142.63;10244049;28;96717;-80
2023/06/12 08:47:21;;;;;;;3.33;1.50;;;;;;;22.48;60.88;100134.81;10248931;28;96728;-80
2023/06/12 08:52:26;;;;;;;2.05;1.20;;;;;;;22.54;60.71;100142.28;10249713;28;98015;-80
2023/06/12 08:57:31;;;;;;;3.90;1.50;;;;;;;22.80;59.53;100137.25;10249890;28;96617;-80
2023/06/12 09:02:34;;;;;;;2.42;1.35;;;;;;;22.79;59.47;100135.56;10249652;28;97768;-80
2023/06/12 09:07:40;;;;;;;2.50;1.70;;;;;;;22.85;59.17;100126.97;10248152;28;96905;-80
2023/06/12 09:12:45;;;;;;;2.90;1.60;;;;;;;23.20;59.06;100129.88;10181382;28;96894;-80
2023/06/12 09:17:49;;;;;;;2.75;1.48;;;;;;;23.43;58.51;100125.03;10180150;28;97148;-80
2023/06/12 09:22:52;;;;;;;3.33;1.38;;;;;;;23.46;58.49;100111.31;10208812;28;96593;-80
2023/06/12 09:27:58;;;;;;;2.90;1.60;;;;;;;23.76;57.64;100108.44;10208662;28;96771;-80
2023/06/12 09:33:02;;;;;;;1.98;1.30;;;;;;;23.61;57.35;100102.66;10208332;28;96606;-79
2023/06/12 09:38:07;;;;;;;2.33;1.42;;;;;;;23.73;56.95;100098.81;10245343;28;96761;-80
2023/06/12 09:43:18;;;;;;;2.28;1.33;;;;;;;23.78;57.16;100101.06;10211257;28;97113;-80
2023/06/12 09:48:22;;;;;;;2.42;1.13;;;;;;;23.93;56.56;100088.81;10208147;28;96591;-80
2023/06/12 09:53:26;;;;;;;2.13;1.23;;;;;;;24.17;55.21;100090.97;10231048;28;97547;-80
2023/06/12 09:58:35;;;;;;;2.08;1.20;;;;;;;24.26;56.14;100084.66;10246942;28;96853;-80
2023/06/12 10:03:39;;;;;;;1.85;0.98;;;;;;;24.36;55.04;100086.34;10252902;28;96734;-80
2023/06/12 10:08:43;;;;;;;2.13;1.35;;;;;;;24.65;54.47;100086.13;10251986;28;97423;-80
2023/06/12 10:13:48;;;;;;;;;;;;;;;24.86;54.03;100077.72;10214888;28;97040;-81
2023/06/12 10:18:52;;;;;;;1.60;1.08;;;;;;;24.91;53.74;100067.34;10214588;28;96788;-80
2023/06/12 10:23:56;;;;;;;1.85;1.10;;;;;;;25.01;52.88;100071.66;10214288;28;97033;-80
2023/06/12 10:29:01;;;;;;;1.35;1.05;;;;;;;25.20;51.82;100066.09;10214696;28;96760;-80
2023/06/12 10:34:12;;;;;;;1.75;1.00;;;;;;;25.55;51.57;100062.44;10214725;28;96690;-80
2023/06/12 10:39:17;;;;;;;1.33;0.85;;;;;;;26.18;49.71;100065.59;10214133;28;96785;-80
2023/06/12 10:44:41;;;;;;;1.70;1.33;;;;;;;26.59;50.96;100059.28;10214110;28;97603;-80
2023/06/12 10:49:57;;;;;;;;;;;;;;;26.86;50.67;100062.50;10213220;28;96958;-80
2023/06/12 10:55:32;;;;;;;1.15;0.90;;;;;;;26.51;49.24;100059.25;10213807;28;97586;-80
2023/06/12 11:00:38;;;;;;;2.22;1.00;;;;;;;26.81;49.34;100070.28;10191511;28;97108;-80
2023/06/12 11:05:47;;;;;;;1.63;1.08;;;;;;;26.73;49.13;100072.13;10212472;28;97598;-80
2023/06/12 11:10:50;;;;;;;1.30;0.80;;;;;;;26.93;48.81;100059.97;10212730;28;96729;-80
2023/06/12 11:15:55;;;;;;;1.40;0.98;;;;;;;26.91;49.54;100062.84;10214777;28;97013;-80
2023/06/12 11:20:59;;;;;;;2.05;1.10;;;;;;;26.82;49.69;100052.19;10252529;28;97479;-80
2023/06/12 11:26:07;;;;;;;1.50;1.20;;;;;;;26.73;49.86;100051.34;10253252;28;96804;-79
2023/06/12 11:31:12;;;;;;;2.05;1.10;;;;;;;27.28;49.51;100050.69;10252740;28;96769;-80
2023/06/12 11:36:16;;;;;;;2.22;1.10;;;;;;;27.17;49.34;100038.38;10251373;28;96744;-80
2023/06/12 11:41:21;;;;;;;2.00;1.30;;;;;;;26.77;50.49;100031.13;10251059;28;97447;-80
2023/06/12 11:46:26;;;;;;;1.90;1.05;;;;;;;26.20;51.57;100032.03;10251748;28;97780;-80
2023/06/12 11:51:29;;;;;;;1.73;1.13;;;;;;;26.64;50.92;100030.78;10251639;28;98039;-80
2023/06/12 11:56:33;;;;;;;2.63;1.23;;;;;;;26.71;51.05;100020.16;10251599;28;97540;-80
2023/06/12 12:01:45;;;;;;;1.80;1.20;;;;;;;26.77;51.05;100014.91;10245651;28;96668;-80
2023/06/12 12:06:49;;;;;;;2.00;0.88;;;;;;;26.36;50.99;100010.53;10248466;28;97755;-79
2023/06/12 12:11:52;;;;;;;1.45;1.05;;;;;;;26.81;51.07;100005.47;10210843;28;96762;-80
2023/06/12 12:17:04;;;;;;;4.13;1.42;;;;;;;26.26;52.38;99982.81;10211956;28;96927;-79
2023/06/12 12:22:10;;;;;;;2.30;1.48;;;;;;;26.79;50.99;99976.94;10210140;28;96810;-79
2023/06/12 12:27:14;;;;;;;2.88;1.30;;;;;;;26.94;50.67;99970.66;10210751;28;97368;-80
2023/06/12 12:32:19;;;;;;;1.77;1.17;;;;;;;27.01;50.21;99958.16;10209211;28;96790;-80
2023/06/12 12:37:22;;;;;;;1.90;1.23;;;;;;;27.37;50.18;99944.25;10210331;28;96683;-80
2023/06/12 12:42:26;;;;;;;2.72;1.30;;;;;;;27.60;49.39;99947.84;10223949;28;97996;-79
2023/06/12 12:47:33;;;;;;;1.02;0.90;;;;;;;27.49;49.20;99934.75;10250387;28;96739;-80
2023/06/12 12:52:36;;;;;;;2.30;1.30;;;;;;;27.51;49.12;99928.13;10250205;28;96549;-79
2023/06/12 12:57:43;;;;;;;2.50;1.30;;;;;;;27.41;48.95;99911.28;10249171;28;97498;-80
2023/06/12 13:02:48;;;;;;;2.30;1.10;;;;;;;28.03;47.95;99904.84;10249675;28;96615;-80
2023/06/12 13:07:51;;;;;;;2.28;1.35;;;;;;;28.07;47.50;99899.94;10227675;28;96835;-80
2023/06/12 13:12:54;;;;;;;2.05;1.25;;;;;;;28.40;47.03;99898.66;10169367;28;96772;-80
2023/06/12 13:17:59;;;;;;;1.27;1.10;;;;;;;27.89;48.03;99894.00;10197222;28;96914;-80
2023/06/12 13:23:02;;;;;;;1.98;1.30;;;;;;;27.60;48.41;99891.06;10207830;28;96708;-80
2023/06/12 13:28:06;;;;;;;2.13;1.10;;;;;;;27.33;48.40;99887.00;10208691;28;96717;-80
2023/06/12 13:33:11;;;;;;;1.92;1.30;;;;;;;28.29;46.77;99879.28;10208778;28;97175;-79
2023/06/12 13:38:14;;;;;;;1.70;1.17;;;;;;;28.18;46.92;99882.41;10214084;22;97669;-79
2023/06/12 13:43:18;;;;;;;;;;;;;;;27.86;45.92;99873.53;10208572;28;96604;-79
2023/06/12 13:48:22;;;;;;;2.17;1.20;;;;;;;27.98;47.27;99871.25;10208416;28;97703;-80
2023/06/12 13:53:26;;;;;;;4.93;1.42;;;;;;;27.51;47.48;99882.16;10208551;28;96649;-80
2023/06/12 13:58:31;;;;;;;1.73;1.30;;;;;;;27.47;47.40;99875.44;10208228;28;96798;-79
2023/06/12 14:03:36;;;;;;;2.00;1.25;;;;;;;27.44;47.23;99870.38;10207756;28;97003;-80
2023/06/12 14:08:40;;;;;;;1.77;1.25;;;;;;;27.90;47.08;99879.44;10232480;28;97034;-79
2023/06/12 14:13:44;;;;;;;2.45;1.38;;;;;;;28.30;47.63;99883.72;10247052;28;97557;-80
2023/06/12 14:18:50;;;;;;;3.95;1.70;;;;;;;28.05;48.41;99892.00;10247859;28;96905;-80
2023/06/12 14:23:54;;;;;;;2.75;1.50;;;;;;;27.60;49.40;99901.88;10246592;28;96862;-80
2023/06/12 14:28:58;;;;;;;2.47;1.70;;;;;;;27.65;49.65;99913.03;10247309;28;96774;-80
2023/06/12 14:34:02;;;;;;;;;;;;;;;27.67;49.96;99909.16;10219294;28;96961;-80
2023/06/12 14:39:06;;;;;;;2.42;1.67;;;;;;;26.99;50.94;99916.97;10207575;28;96984;-80
2023/06/12 14:44:10;;;;;;;2.83;1.83;;;;;;;26.33;52.60;99927.19;10244153;28;96731;-80
2023/06/12 14:49:19;;;;;;;2.30;1.80;;;;;;;26.06;52.29;99938.28;10252355;28;96537;-80
2023/06/12 14:54:22;;;;;;;2.58;1.80;;;;;;;26.37;51.80;99946.59;10253716;28;97267;-80
2023/06/12 14:59:26;;;;;;;3.30;1.70;;;;;;;26.40;51.51;99957.06;10252986;28;96893;-80
2023/06/12 15:04:30;;;;;;;3.33;1.75;;;;;;;26.18;52.78;99963.09;10252180;28;97434;-80
2023/06/12 15:09:34;;;;;;;2.90;1.73;;;;;;;26.29;52.30;99963.59;10253142;28;96755;-80
2023/06/12 15:14:38;;;;;;;2.72;1.60;;;;;;;25.54;52.95;99959.16;10252195;28;96629;-80
2023/06/12 15:19:43;;;;;;;2.75;1.50;;;;;;;25.59;53.71;99966.75;10253322;28;97230;-80
2023/06/12 15:24:46;;;;;;;3.85;1.52;;;;;;;25.49;53.90;99957.97;10252983;28;97602;-80
2023/06/12 15:29:50;;;;;;;2.67;1.70;;;;;;;25.32;53.70;99940.03;10252672;28;97446;-80
2023/06/12 15:34:55;;;;;;;3.17;1.50;;;;;;;25.88;52.66;99934.88;10250753;28;96913;-80
2023/06/12 15:39:58;;;;;;;2.53;1.30;;;;;;;25.61;51.88;99932.41;10249111;28;96680;-80
2023/06/12 15:45:02;;;;;;;1.92;1.17;;;;;;;26.17;49.97;99935.25;10212109;28;97451;-80
2023/06/12 15:50:08;;;;;;;2.97;1.15;;;;;;;26.25;49.49;99919.06;10232863;28;97383;-79
2023/06/12 15:55:11;;;;;;;2.88;1.20;;;;;;;26.48;48.86;99911.16;10251585;28;96820;-79
2023/06/12 16:00:15;;;;;;;;;;;;;;;26.22;47.06;99905.06;10252293;28;96726;-79
2023/06/12 16:05:20;;;;;;;2.55;1.08;;;;;;;26.11;48.09;99906.25;10250863;28;96907;-79
2023/06/12 16:10:25;;;;;;;1.55;1.10;;;;;;;26.20;48.33;99904.38;10251572;28;96811;-79
2023/06/12 16:15:28;;;;;;;2.08;1.10;;;;;;;26.02;48.24;99911.81;10251312;28;96607;-80
2023/06/12 16:20:33;;;;;;;2.92;1.23;;;;;;;26.02;48.09;99912.66;10251059;28;96678;-79
2023/06/12 16:25:36;;;;;;;4.22;1.20;;;;;;;26.01;48.11;99916.34;10250031;28;96687;-79
2023/06/12 16:30:40;;;;;;;1.85;1.25;;;;;;;25.88;48.02;99907.94;10249978;28;96803;-79
2023/06/12 16:35:45;;;;;;;;;;;;;;;25.75;47.89;99912.94;10210053;28;96870;-79
2023/06/12 16:40:48;;;;;;;1.60;0.90;;;;;;;25.92;48.30;99906.56;10228487;28;96868;-79
2023/06/12 16:45:52;;;;;;;2.97;1.30;;;;;;;25.91;48.62;99904.88;10249243;28;96825;-79
2023/06/12 16:50:57;;;;;;;3.07;1.30;;;;;;;25.75;48.49;99896.75;10250057;28;96874;-80
2023/06/12 16:56:00;;;;;;;2.30;1.00;;;;;;;25.75;48.91;99899.47;10249035;28;97260;-80
2023/06/12 17:01:03;;;;;;;2.13;1.37;;;;;;;25.44;49.30;99891.09;10249582;28;96669;-80
2023/06/12 17:06:10;;;;;;;2.10;1.05;;;;;;;25.00;50.14;99900.34;10249806;28;97725;-80
2023/06/12 17:11:15;;;;;;;2.33;1.30;;;;;;;25.13;50.04;99910.66;10248690;28;96697;-80
2023/06/12 17:16:19;;;;;;;3.75;1.30;;;;;;;25.07;50.70;99908.63;10249453;28;97036;-79
2023/06/12 17:21:26;;;;;;;1.30;1.10;;;;;;;24.98;50.48;99926.56;10250144;28;96657;-80
2023/06/12 17:26:29;;;;;;;2.38;1.40;;;;;;;24.93;50.12;99928.03;10249135;28;96626;-79
2023/06/12 17:31:32;;;;;;;1.20;1.00;;;;;;;25.02;50.25;99930.63;10232475;28;96903;-80
2023/06/12 17:36:39;;;;;;;1.87;1.10;;;;;;;24.98;49.96;99934.66;10207104;28;97128;-80
2023/06/12 17:41:43;;;;;;;1.88;0.95;;;;;;;25.10;49.28;99935.22;10208509;28;96715;-80
2023/06/12 17:46:46;;;;;;;1.90;1.00;;;;;;;25.05;49.29;99938.41;10210188;28;97552;-80
2023/06/12 17:51:51;;;;;;;1.97;1.07;;;;;;;25.13;49.05;99935.75;10248803;28;97628;-79
2023/06/12 17:56:56;;;;;;;1.98;1.17;;;;;;;25.12;49.02;99934.06;10248543;28;96644;-80
2023/06/12 18:01:59;;;;;;;2.20;1.20;;;;;;;25.11;48.63;99948.53;10247997;28;96778;-79
2023/06/12 18:07:05;;;;;;;3.40;0.90;;;;;;;25.13;48.30;99948.38;10246947;28;96722;-79
2023/06/12 18:12:11;;;;;;;1.40;0.73;;;;;;;25.36;48.33;99950.34;10248887;28;96624;-79
2023/06/12 18:17:15;;;;;;;2.60;0.82;;;;;;;25.30;47.95;99948.28;10247875;28;96672;-79
2023/06/12 18:22:20;;;;;;;1.88;1.00;;;;;;;25.08;48.06;99938.09;10248559;28;97142;-79
2023/06/12 18:27:23;;;;;;;1.52;0.75;;;;;;;24.89;48.28;99937.44;10253620;28;96715;-79
2023/06/12 18:32:26;;;;;;;1.73;0.90;;;;;;;24.89;48.96;99935.59;10230299;28;97855;-79
2023/06/12 18:37:31;;;;;;;1.87;1.00;;;;;;;24.91;48.57;99946.19;10213686;28;97364;-79
2023/06/12 18:42:35;;;;;;;1.75;0.90;;;;;;;24.91;49.83;99940.81;10192065;28;96760;-79
2023/06/12 18:47:38;;;;;;;2.47;1.48;;;;;;;24.77;51.64;99940.38;10214072;28;97001;-79
2023/06/12 18:52:43;;;;;;;1.93;1.30;;;;;;;24.64;52.33;99933.72;10213313;28;96688;-79
2023/06/12 18:57:48;;;;;;;2.95;1.38;;;;;;;24.62;52.62;99943.78;10239192;28;96758;-79
2023/06/12 19:02:53;;;;;;;2.67;1.33;;;;;;;24.44;53.25;99946.53;10254373;28;97255;-79
2023/06/12 19:07:58;;;;;;;2.28;1.38;;;;;;;24.41;52.73;99940.63;10253247;28;97470;-79
2023/06/12 19:13:01;;;;;;;1.70;1.10;;;;;;;24.28;52.44;99938.34;10253129;28;97097;-79
2023/06/12 19:18:06;;;;;;;2.42;1.20;;;;;;;24.20;52.10;99938.25;10252083;28;97059;-79
2023/06/12 19:23:11;;;;;;;1.92;1.30;;;;;;;24.16;52.16;99941.38;10253018;28;97980;-80
2023/06/12 19:28:15;;;;;;;1.95;1.17;;;;;;;24.00;52.16;99933.16;10252606;28;96722;-80
2023/06/12 19:33:19;;;;;;;2.35;1.20;;;;;;;23.92;52.36;99936.63;10212103;28;96762;-79
2023/06/12 19:38:26;;;;;;;1.50;1.17;;;;;;;23.84;52.75;99938.38;10212178;28;97023;-79
2023/06/12 19:43:29;;;;;;;2.58;1.50;;;;;;;23.75;53.64;99933.91;10211736;28;96661;-79
2023/06/12 19:48:32;;;;;;;1.70;1.30;;;;;;;23.68;54.54;99934.50;10235960;28;96720;-79
2023/06/12 19:53:37;;;;;;;1.53;1.00;;;;;;;23.54;55.04;99940.41;10252969;28;98465;-79
2023/06/12 19:58:40;;;;;;;2.72;1.30;;;;;;;23.51;55.08;99939.84;10251990;28;96568;-79
2023/06/12 20:03:44;;;;;;;3.17;1.50;;;;;;;23.45;54.98;99933.22;10250619;28;96709;-79
2023/06/12 20:08:49;;;;;;;2.70;1.50;;;;;;;23.44;55.15;99928.00;10250474;28;97175;-79
2023/06/12 20:13:53;;;;;;;3.20;1.48;;;;;;;23.35;55.77;99945.84;10251712;28;96709;-80
2023/06/12 20:18:57;;;;;;;2.67;1.27;;;;;;;23.28;56.54;99943.91;10251623;28;97204;-79
2023/06/12 20:24:02;;;;;;;2.23;1.53;;;;;;;23.16;56.89;99939.72;10250250;28;96643;-79
2023/06/12 20:29:06;;;;;;;1.63;1.42;;;;;;;23.21;56.48;99943.66;10240572;28;96651;-79
2023/06/12 20:34:09;;;;;;;3.03;1.50;;;;;;;23.21;56.65;99937.44;10169932;28;97253;-79
2023/06/12 20:39:14;;;;;;;1.57;1.23;;;;;;;23.19;56.63;99934.03;10192651;28;96724;-79
2023/06/12 20:44:34;;;;;;;2.42;1.42;;;;;;;23.13;57.07;99942.72;10208182;28;97014;-79
2023/06/12 20:49:38;;;;;;;3.27;1.30;;;;;;;23.08;57.25;99948.50;10209803;28;96856;-79
2023/06/12 20:54:43;;;;;;;2.10;1.30;;;;;;;23.16;57.72;99958.50;10210708;28;97777;-79
2023/06/12 20:59:46;;;;;;;2.45;1.40;;;;;;;23.01;58.49;99962.66;10208982;28;97146;-79
2023/06/12 21:04:50;;;;;;;2.10;1.50;;;;;;;22.90;58.95;99960.16;10208762;28;97470;-79
2023/06/12 21:09:56;;;;;;;1.80;1.50;;;;;;;22.79;59.73;99963.84;10209272;28;96721;-79
2023/06/12 21:14:59;;;;;;;3.25;1.45;;;;;;;22.65;60.13;99961.56;10209568;28;97194;-79
2023/06/12 21:20:04;;;;;;;2.20;1.20;;;;;;;22.71;60.09;99976.25;10209231;28;97367;-79
2023/06/12 21:25:10;;;;;;;2.25;1.30;;;;;;;22.73;60.55;99975.13;10208998;28;97965;-79
2023/06/12 21:30:14;;;;;;;1.75;1.13;;;;;;;22.73;60.41;99976.97;10209167;28;96662;-79
2023/06/12 21:35:18;;;;;;;3.38;1.60;;;;;;;22.62;60.72;99986.03;10209342;28;97169;-79
2023/06/12 21:40:23;;;;;;;2.90;1.50;;;;;;;22.40;61.72;99986.31;10208730;28;96806;-79
2023/06/12 21:45:26;;;;;;;1.55;1.13;;;;;;;22.52;61.43;99986.00;10208209;28;97584;-79
2023/06/12 21:50:33;;;;;;;1.80;1.40;;;;;;;22.30;62.02;99980.09;10207303;28;96786;-79
2023/06/12 21:55:38;;;;;;;1.33;1.17;;;;;;;22.33;62.27;99975.28;10208247;28;96811;-79
2023/06/12 22:00:41;;;;;;;3.65;1.58;;;;;;;22.31;62.46;99973.75;10214627;28;98165;-79
2023/06/12 22:05:45;;;;;;;1.80;1.20;;;;;;;22.33;62.75;99975.28;10215158;28;96762;-79
2023/06/12 22:10:50;;;;;;;2.13;1.50;;;;;;;22.37;62.28;99968.69;10214899;28;96823;-79
2023/06/12 22:15:53;;;;;;;3.88;2.08;;;;;;;22.41;62.25;99978.13;10214672;28;96724;-79
2023/06/12 22:20:56;;;;;;;3.03;1.47;;;;;;;22.45;62.06;99976.03;10215336;28;96706;-79
2023/06/12 22:26:19;;;;;;;2.30;1.50;;;;;;;22.16;62.99;99972.50;10215553;28;96653;-79
2023/06/12 22:31:22;;;;;;;3.58;1.67;;;;;;;22.09;63.15;99979.41;10183098;28;97609;-79
2023/06/12 22:36:25;;;;;;;3.23;1.40;;;;;;;22.02;63.84;99973.72;10181952;28;97928;-79
2023/06/12 22:41:30;;;;;;;3.15;1.70;;;;;;;22.04;63.96;99977.13;10213174;28;96678;-79
2023/06/12 22:46:33;;;;;;;3.63;1.70;;;;;;;22.13;64.09;99968.25;10213548;28;96700;-79
2023/06/12 22:51:36;;;;;;;3.72;1.55;;;;;;;21.92;64.74;99977.34;10213867;28;96644;-79
2023/06/12 22:56:41;;;;;;;2.42;1.52;;;;;;;21.89;64.94;99980.31;10213841;28;97401;-79
2023/06/12 23:01:44;;;;;;;3.83;1.92;;;;;;;21.91;64.97;99979.22;10212475;28;96702;-79
2023/06/12 23:06:48;;;;;;;2.63;1.52;;;;;;;21.87;65.07;99975.09;10212943;28;96732;-79
2023/06/12 23:11:52;;;;;;;3.55;1.80;;;;;;;21.96;64.96;99976.09;10211856;28;96647;-79
2023/06/12 23:16:58;;;;;;;2.80;1.63;;;;;;;22.08;64.46;99975.88;10213936;28;97281;-80
2023/06/12 23:22:05;;;;;;;2.65;1.65;;;;;;;22.05;64.70;99976.16;10212816;28;96998;-79
2023/06/12 23:27:11;;;;;;;3.00;1.50;;;;;;;22.03;64.68;99974.59;10217315;28;98127;-79
2023/06/12 23:32:15;;;;;;;3.33;1.60;;;;;;;22.05;64.75;99975.31;10213156;28;97577;-80
2023/06/12 23:37:18;;;;;;;2.55;1.55;;;;;;;21.88;65.03;99970.59;10211906;28;96654;-79